Braselton, Georgia
Current Conditions -  °F | °C
As of 8:35 PM on Thursday 18 Dec 2014 (Local Time) from KWDR Reporting Station
Clear Clear  
Wind Chill: 50°   Ceiling: Unl
Heat Index: 50°   Visibility: 10mi
Dew Point: 37°   Wind: 7mph
Humidity: 62%   Direction: 290°WNW
Pressure: 30.15"   Gusts: NA
Location:  34.11°N, 83.76°W
Report Text: KWDR 190135Z AUTO 29006KT 10SM CLR 10/03 A3015 RMK AO2 T01000030
Loading
Personal Weather Stations






























Interactive Weather Map New forecast layout! Learn more

10-Day Weather Forecast

Advertisements
Track Severe Weather on mobile